createdAt,value
2022-10-16T00:10:04.716Z,1462.88261
2022-10-16T00:25:06.517Z,1451.78816
2022-10-16T00:40:08.380Z,1467.68945
2022-10-16T00:55:10.206Z,1459.6955
2022-10-16T01:10:12.009Z,1475.77144
2022-10-16T01:25:13.850Z,1475.77144
2022-10-16T01:40:15.665Z,1266.54115
2022-10-16T01:55:17.506Z,852.4178
2022-10-16T02:10:19.393Z,851.87589
2022-10-16T02:25:21.254Z,723.60123
2022-10-16T02:40:25.364Z,760.06856
2022-10-16T02:55:27.429Z,439.77098
2022-10-16T03:10:29.263Z,1138.48818
2022-10-16T03:25:31.101Z,1313.726
2022-10-16T03:40:32.930Z,1377.18448
2022-10-16T03:55:34.749Z,1341.34185
2022-10-16T04:10:36.588Z,1012.08509
2022-10-16T04:25:38.446Z,630.25537
2022-10-16T04:40:40.280Z,667.99518
2022-10-16T04:55:42.096Z,748.60385
2022-10-16T05:10:43.949Z,815.08565
2022-10-16T05:25:45.770Z,909.09141
2022-10-16T05:40:47.609Z,1338.66185
2022-10-16T05:55:49.451Z,1445.52371
2022-10-16T06:10:51.282Z,1497.20722
2022-10-16T06:25:53.075Z,1515.8376
2022-10-16T06:40:54.911Z,1567.25195
2022-10-16T06:55:56.772Z,1904.7624
2022-10-16T07:10:58.601Z,1951.93058
2022-10-16T07:26:00.451Z,1895.33289
2022-10-16T07:41:02.276Z,1902.0587
2022-10-16T07:56:04.108Z,1910.19294
2022-10-16T08:11:05.954Z,1937.81684
2022-10-16T08:26:07.815Z,1964.80988
2022-10-16T08:41:09.635Z,2015.03809
2022-10-16T08:56:11.453Z,2083.98184
2022-10-16T09:11:13.295Z,2145.71708
2022-10-16T09:26:15.177Z,2161.29083
2022-10-16T09:41:17.094Z,2207.57876
2022-10-16T09:56:18.946Z,2252.10135
2022-10-16T10:11:20.765Z,2253.99546
2022-10-16T10:26:22.588Z,2259.69697
2022-10-16T10:41:26.629Z,2259.69697
2022-10-16T10:56:31.063Z,2259.69697
2022-10-16T11:11:32.912Z,2220.38162
2022-10-16T11:26:34.761Z,2248.32265
2022-10-16T11:41:36.610Z,2342.65785
2022-10-16T11:56:38.432Z,2414.41493
2022-10-16T12:11:40.245Z,2397.13826
2022-10-16T12:26:42.090Z,2369.58495
2022-10-16T12:41:43.923Z,2346.76058
2022-10-16T12:56:45.775Z,1363.17447
2022-10-16T13:11:47.605Z,476.05361
2022-10-16T13:26:49.445Z,323.64888
2022-10-16T13:41:51.272Z,426.05439
2022-10-16T13:57:09.116Z,654.28268
2022-10-16T14:12:27.956Z,661.39444
2022-10-16T14:27:30.331Z,559.17399
2022-10-16T14:42:32.164Z,1193.23292
2022-10-16T14:57:33.998Z,1356.27581
2022-10-16T15:12:35.848Z,1382.86945
2022-10-16T15:27:37.667Z,1398.7479
2022-10-16T15:42:39.521Z,1428.57194
2022-10-16T15:57:41.351Z,1527.93664
2022-10-16T16:12:43.206Z,1648.21698
2022-10-16T16:27:45.072Z,1713.55548
2022-10-16T16:42:46.911Z,1714.65181
2022-10-16T16:57:48.767Z,1723.47316
2022-10-16T17:12:50.673Z,1735.75179
2022-10-16T17:27:53.124Z,1743.65697
2022-10-16T17:42:54.976Z,1721.25933
2022-10-16T17:57:56.810Z,1730.14898
2022-10-16T18:12:58.629Z,1747.06699
2022-10-16T18:28:00.485Z,1713.55548
2022-10-16T18:43:02.309Z,1713.55548
2022-10-16T18:58:04.156Z,1723.47316
2022-10-16T19:13:07.639Z,1730.14898
2022-10-16T19:28:12.137Z,828.69561
2022-10-16T19:43:13.963Z,970.31187
2022-10-16T19:58:15.806Z,1594.28961
2022-10-16T20:13:17.679Z,1876.7512
2022-10-16T20:28:19.515Z,2004.48816
2022-10-16T20:43:21.370Z,2031.84281
2022-10-16T20:58:23.168Z,2061.53896
2022-10-16T21:13:28.235Z,2097.02711
2022-10-16T21:28:32.594Z,2121.93241
2022-10-16T21:43:34.461Z,2163.03521
2022-10-16T21:58:36.289Z,2164.78241
2022-10-16T22:13:38.117Z,2156.07452
2022-10-16T22:28:40.070Z,2211.22163
2022-10-16T22:43:41.921Z,2238.93117
2022-10-16T22:58:43.786Z,2259.69697
2022-10-16T23:13:45.803Z,2294.52106
2022-10-16T23:28:47.759Z,2292.55825
2022-10-16T23:43:49.721Z,2290.5988
2022-10-16T23:58:51.592Z,2294.52106
